createdAt,value
2016-11-14T00:00:06.847Z,99.99
2016-11-14T00:01:07.135Z,99.99
2016-11-14T00:02:06.798Z,99.99
2016-11-14T00:03:06.774Z,99.99
2016-11-14T00:04:06.754Z,99.99
2016-11-14T00:05:06.729Z,99.99
2016-11-14T00:06:06.706Z,99.99
2016-11-14T00:07:06.682Z,99.99
2016-11-14T00:08:06.655Z,99.99
2016-11-14T00:09:06.635Z,99.99
2016-11-14T00:10:06.923Z,99.99
2016-11-14T00:11:06.901Z,99.99
2016-11-14T00:12:06.562Z,99.99
2016-11-14T00:13:06.538Z,99.99
2016-11-14T00:14:06.515Z,99.99
2016-11-14T00:15:06.809Z,99.99
2016-11-14T00:16:06.468Z,99.99
2016-11-14T00:17:06.446Z,99.99
2016-11-14T00:18:06.419Z,99.99
2016-11-14T00:19:06.394Z,99.99
2016-11-14T00:20:06.421Z,99.99
2016-11-14T00:21:06.350Z,99.99
2016-11-14T00:22:06.330Z,99.99
2016-11-14T00:23:06.307Z,99.99
2016-11-14T00:24:06.277Z,99.99
2016-11-14T00:25:06.260Z,99.99
2016-11-14T00:26:06.230Z,99.99
2016-11-14T00:27:06.208Z,99.99
2016-11-14T00:28:06.186Z,99.99
2016-11-14T00:29:06.161Z,99.99
2016-11-14T00:30:06.139Z,99.99
2016-11-14T00:31:06.112Z,99.99
2016-11-14T00:32:06.091Z,99.99
2016-11-14T00:33:06.163Z,99.99
2016-11-14T00:34:06.042Z,99.99
2016-11-14T00:35:06.334Z,99.99
2016-11-14T00:36:05.998Z,99.99
2016-11-14T00:37:05.978Z,99.99
2016-11-14T00:38:06.264Z,99.99
2016-11-14T00:39:05.924Z,99.99
2016-11-14T00:40:05.900Z,99.99
2016-11-14T00:41:05.875Z,99.99
2016-11-14T00:42:05.858Z,99.99
2016-11-14T00:43:05.871Z,99.99
2016-11-14T00:44:05.806Z,99.99
2016-11-14T00:45:05.787Z,99.99
2016-11-14T00:46:05.758Z,99.99
2016-11-14T00:47:06.047Z,99.99
2016-11-14T00:48:05.718Z,99.99
2016-11-14T00:49:05.738Z,99.99
2016-11-14T00:50:05.717Z,99.99
2016-11-14T00:51:05.641Z,99.99
2016-11-14T00:52:05.620Z,99.99
2016-11-14T00:53:05.913Z,99.99
2016-11-14T00:54:05.571Z,99.99
2016-11-14T00:55:05.556Z,99.99
2016-11-14T00:56:05.841Z,99.99
2016-11-14T00:57:05.497Z,99.99
2016-11-14T00:58:05.839Z,99.99
2016-11-14T00:59:05.454Z,99.99
2016-11-14T01:00:05.432Z,99.99
2016-11-14T01:01:05.406Z,99.99
2016-11-14T01:02:05.381Z,99.99
2016-11-14T01:03:05.356Z,99.99
2016-11-14T01:04:05.336Z,99.99
2016-11-14T01:05:05.311Z,99.99
2016-11-14T01:06:05.284Z,99.99
2016-11-14T01:07:05.261Z,99.99
2016-11-14T01:08:05.241Z,99.99
2016-11-14T01:09:05.255Z,99.99
2016-11-14T01:10:05.191Z,99.99
2016-11-14T01:11:05.167Z,99.99
2016-11-14T01:12:05.144Z,99.99
2016-11-14T01:13:05.120Z,99.99
2016-11-14T01:14:05.096Z,99.99
2016-11-14T01:15:05.385Z,99.99
2016-11-14T01:16:05.045Z,99.99
2016-11-14T01:17:05.024Z,99.99
2016-11-14T01:18:04.999Z,99.99
2016-11-14T01:19:04.976Z,99.99
2016-11-14T01:20:05.266Z,99.99
2016-11-14T01:21:04.930Z,99.99
2016-11-14T01:22:04.907Z,99.99
2016-11-14T01:23:04.883Z,99.99
2016-11-14T01:24:04.858Z,99.99
2016-11-14T01:25:04.832Z,99.99
2016-11-14T01:26:04.807Z,99.99
2016-11-14T01:27:04.785Z,99.99
2016-11-14T01:28:04.760Z,99.99
2016-11-14T01:29:04.738Z,99.99
2016-11-14T01:30:04.716Z,99.99
2016-11-14T01:31:04.894Z,99.99
2016-11-14T01:32:04.663Z,99.99
2016-11-14T01:33:04.640Z,99.99
2016-11-14T01:34:04.616Z,99.99
2016-11-14T01:35:04.590Z,99.99
2016-11-14T01:36:04.578Z,99.99
2016-11-14T01:37:04.543Z,99.99
2016-11-14T01:38:04.522Z,99.99
2016-11-14T01:39:04.498Z,99.99
2016-11-14T01:40:04.471Z,99.99
2016-11-14T01:41:04.451Z,99.99
2016-11-14T01:42:04.430Z,99.99
2016-11-14T01:43:04.402Z,99.99
2016-11-14T01:44:04.375Z,99.99
2016-11-14T01:45:04.355Z,99.99
2016-11-14T01:46:04.329Z,99.99
2016-11-14T01:47:04.316Z,99.99
2016-11-14T01:48:04.281Z,99.99
2016-11-14T01:49:04.262Z,99.99
2016-11-14T01:50:04.235Z,99.99
2016-11-14T01:51:04.207Z,99.99
2016-11-14T01:52:04.185Z,99.99
2016-11-14T01:53:04.478Z,99.99
2016-11-14T01:54:04.136Z,99.99
2016-11-14T01:55:04.115Z,99.99
2016-11-14T01:56:04.095Z,99.99
2016-11-14T01:57:04.068Z,99.99
2016-11-14T01:58:04.045Z,99.99
2016-11-14T01:59:04.022Z,99.99
2016-11-14T02:00:03.996Z,99.99
2016-11-14T02:01:03.969Z,99.99
2016-11-14T02:02:03.946Z,99.99
2016-11-14T02:03:04.233Z,99.99
2016-11-14T02:04:03.897Z,99.99
2016-11-14T02:05:03.875Z,99.99
2016-11-14T02:06:03.850Z,99.99
2016-11-14T02:07:03.827Z,99.99
2016-11-14T02:08:03.804Z,99.99
2016-11-14T02:09:03.779Z,99.99
2016-11-14T02:10:03.753Z,99.99
2016-11-14T02:11:03.731Z,99.99
2016-11-14T02:12:03.705Z,99.99
2016-11-14T02:13:03.682Z,99.99
2016-11-14T02:14:03.659Z,99.99
2016-11-14T02:15:03.638Z,99.99
2016-11-14T02:16:03.614Z,99.99
2016-11-14T02:17:03.589Z,99.99
2016-11-14T02:18:03.562Z,99.99
2016-11-14T02:19:03.541Z,99.99
2016-11-14T02:20:03.520Z,99.99
2016-11-14T02:21:03.492Z,99.99
2016-11-14T02:22:03.469Z,99.99
2016-11-14T02:23:03.441Z,99.99
2016-11-14T02:24:03.424Z,99.99
2016-11-14T02:25:03.394Z,99.99
2016-11-14T02:26:03.367Z,99.99
2016-11-14T02:27:03.352Z,99.99
2016-11-14T02:28:03.322Z,99.99
2016-11-14T02:29:03.299Z,99.99
2016-11-14T02:30:03.273Z,99.99
2016-11-14T02:31:03.561Z,99.99
2016-11-14T02:32:03.231Z,99.99
2016-11-14T02:33:03.202Z,99.99
2016-11-14T02:34:03.173Z,99.99
2016-11-14T02:35:03.162Z,99.99
2016-11-14T02:36:03.128Z,99.99
2016-11-14T02:37:03.103Z,99.99
2016-11-14T02:38:03.080Z,99.99
2016-11-14T02:39:03.058Z,99.99
2016-11-14T02:40:03.081Z,99.99
2016-11-14T02:41:03.005Z,99.99
2016-11-14T02:42:02.981Z,99.99
2016-11-14T02:43:02.955Z,99.99
2016-11-14T02:44:03.295Z,99.99
2016-11-14T02:45:02.910Z,99.99
2016-11-14T02:46:02.884Z,99.99
2016-11-14T02:47:02.861Z,99.99
2016-11-14T02:48:02.836Z,99.99
2016-11-14T02:49:02.813Z,99.99
2016-11-14T02:50:02.787Z,99.99
2016-11-14T02:51:02.767Z,99.99
2016-11-14T02:52:02.740Z,99.99
2016-11-14T02:53:02.716Z,99.99
2016-11-14T02:54:02.725Z,99.99
2016-11-14T02:55:02.692Z,99.99
2016-11-14T02:56:02.639Z,99.99
2016-11-14T02:57:02.619Z,99.99
2016-11-14T02:58:02.597Z,99.99
2016-11-14T02:59:02.570Z,99.99
2016-11-14T03:00:02.545Z,99.99
2016-11-14T03:01:02.524Z,99.99
2016-11-14T03:02:02.495Z,99.99
2016-11-14T03:03:02.475Z,99.99
2016-11-14T03:04:02.447Z,99.99
2016-11-14T03:05:02.426Z,99.99
2016-11-14T03:06:02.402Z,99.99
2016-11-14T03:07:02.376Z,99.99
2016-11-14T03:08:02.351Z,99.99
2016-11-14T03:09:02.325Z,99.99
2016-11-14T03:10:02.304Z,99.99
2016-11-14T03:11:02.300Z,99.99
2016-11-14T03:12:02.256Z,99.99
2016-11-14T03:13:02.228Z,99.99
2016-11-14T03:14:02.227Z,99.99
2016-11-14T03:15:02.184Z,99.99
2016-11-14T03:16:02.468Z,99.99
2016-11-14T03:17:02.130Z,99.99
2016-11-14T03:18:02.110Z,99.99
2016-11-14T03:19:02.083Z,99.99
2016-11-14T03:20:02.062Z,99.99
2016-11-14T03:21:02.036Z,99.99
2016-11-14T03:22:02.013Z,99.99
2016-11-14T03:23:01.986Z,99.99
2016-11-14T03:24:01.964Z,99.99
2016-11-14T03:25:01.938Z,99.99
2016-11-14T03:26:01.928Z,99.99
2016-11-14T03:27:01.890Z,99.99
2016-11-14T03:28:01.866Z,99.99
2016-11-14T03:29:01.843Z,99.99
2016-11-14T03:30:01.815Z,99.99
2016-11-14T03:31:02.196Z,99.99
2016-11-14T03:32:01.766Z,99.99
2016-11-14T03:33:01.744Z,99.99
2016-11-14T03:34:01.720Z,99.99
2016-11-14T03:35:01.696Z,99.99
2016-11-14T03:36:01.675Z,99.99
2016-11-14T03:37:01.649Z,99.99
2016-11-14T03:38:01.934Z,99.99
2016-11-14T03:39:01.597Z,99.99
2016-11-14T03:40:01.575Z,99.99
2016-11-14T03:41:01.549Z,99.99
2016-11-14T03:42:01.533Z,99.99
2016-11-14T03:43:01.501Z,99.99
2016-11-14T03:44:01.481Z,99.99
2016-11-14T03:45:01.458Z,99.99
2016-11-14T03:46:01.432Z,99.99
2016-11-14T03:47:01.406Z,99.99
2016-11-14T03:48:01.382Z,99.99
2016-11-14T03:49:01.365Z,99.99
2016-11-14T03:50:01.334Z,99.99
2016-11-14T03:51:01.305Z,99.99
2016-11-14T03:52:01.281Z,99.99
2016-11-14T03:53:01.257Z,99.99
2016-11-14T03:54:01.237Z,99.99
2016-11-14T03:55:01.573Z,99.99
2016-11-14T03:56:01.183Z,99.99
2016-11-14T03:57:01.159Z,99.99
2016-11-14T03:58:01.138Z,99.99
2016-11-14T03:59:01.113Z,99.99
2016-11-14T04:00:01.087Z,99.99
2016-11-14T04:01:01.064Z,99.99
2016-11-14T04:02:01.039Z,99.99
2016-11-14T04:03:01.019Z,99.99
2016-11-14T04:04:00.991Z,99.99
2016-11-14T04:05:00.998Z,99.99
2016-11-14T04:06:00.945Z,99.99
2016-11-14T04:07:00.917Z,99.99
2016-11-14T04:08:00.893Z,99.99
2016-11-14T04:09:00.867Z,99.99
2016-11-14T04:10:00.842Z,99.99
2016-11-14T04:11:00.819Z,99.99
2016-11-14T04:12:00.794Z,99.99
2016-11-14T04:13:00.769Z,99.99
2016-11-14T04:14:00.746Z,99.99
2016-11-14T04:15:00.722Z,99.99
2016-11-14T04:16:00.694Z,99.99
2016-11-14T04:17:00.673Z,99.99
2016-11-14T04:18:00.648Z,99.99
2016-11-14T04:19:00.624Z,99.99
2016-11-14T04:20:00.909Z,99.99
2016-11-14T04:21:00.578Z,99.99
2016-11-14T04:22:00.598Z,99.99
2016-11-14T04:23:00.527Z,99.99
2016-11-14T04:24:00.504Z,99.99
2016-11-14T04:25:00.478Z,99.99
2016-11-14T04:26:00.454Z,99.99
2016-11-14T04:27:00.429Z,99.99
2016-11-14T04:28:00.403Z,99.99
2016-11-14T04:29:00.381Z,99.99
2016-11-14T04:30:00.355Z,99.99
2016-11-14T04:31:00.330Z,99.99
2016-11-14T04:32:00.304Z,99.99
2016-11-14T04:33:00.280Z,99.99
2016-11-14T04:34:00.256Z,99.99
2016-11-14T04:35:00.235Z,99.99
2016-11-14T04:36:00.207Z,99.99
2016-11-14T04:37:00.182Z,99.99
2016-11-14T04:38:00.156Z,99.99
2016-11-14T04:39:00.133Z,99.99
2016-11-14T04:40:00.109Z,99.99
2016-11-14T04:41:00.084Z,99.99
2016-11-14T04:42:00.372Z,99.99
2016-11-14T04:43:00.036Z,99.99
2016-11-14T04:44:00.009Z,99.99
2016-11-14T04:44:59.987Z,99.99
2016-11-14T04:45:59.962Z,99.99
2016-11-14T04:46:59.938Z,99.99
2016-11-14T04:47:59.914Z,99.99
2016-11-14T04:48:59.888Z,99.99
2016-11-14T04:49:59.862Z,99.99
2016-11-14T04:50:59.840Z,99.99
2016-11-14T04:51:59.816Z,99.99
2016-11-14T04:52:59.790Z,99.99
2016-11-14T04:53:59.767Z,99.99
2016-11-14T04:55:00.053Z,99.99
2016-11-14T04:55:59.715Z,99.99
2016-11-14T04:56:59.691Z,99.99
2016-11-14T04:57:59.670Z,99.99
2016-11-14T04:58:59.650Z,99.99
2016-11-14T04:59:59.660Z,99.99
2016-11-14T05:00:59.596Z,99.99
2016-11-14T05:01:59.884Z,99.99
2016-11-14T05:02:59.545Z,99.99
2016-11-14T05:03:59.527Z,99.99
2016-11-14T05:04:59.502Z,99.99
2016-11-14T05:05:59.476Z,99.99
2016-11-14T05:06:59.449Z,99.99
2016-11-14T05:07:59.426Z,99.99
2016-11-14T05:08:59.722Z,99.99
2016-11-14T05:09:59.691Z,99.99
2016-11-14T05:10:59.352Z,99.99
2016-11-14T05:11:59.321Z,99.99
2016-11-14T05:12:59.300Z,99.99
2016-11-14T05:13:59.274Z,99.99
2016-11-14T05:14:59.251Z,99.99
2016-11-14T05:15:59.226Z,99.99
2016-11-14T05:16:59.198Z,99.99
2016-11-14T05:17:59.174Z,99.99
2016-11-14T05:18:59.151Z,99.99
2016-11-14T05:19:59.128Z,99.99
2016-11-14T05:20:59.416Z,99.99
2016-11-14T05:21:59.082Z,99.99
2016-11-14T05:22:59.066Z,99.99
2016-11-14T05:23:59.076Z,99.99
2016-11-14T05:24:59.008Z,99.99
2016-11-14T05:25:58.982Z,99.99
2016-11-14T05:26:58.954Z,99.99
2016-11-14T05:27:58.931Z,99.99
2016-11-14T05:28:58.909Z,99.99
2016-11-14T05:29:58.883Z,99.99
2016-11-14T05:30:58.856Z,99.99
2016-11-14T05:31:59.039Z,99.99
2016-11-14T05:32:58.809Z,99.99
2016-11-14T05:33:58.788Z,99.99
2016-11-14T05:34:58.758Z,99.99
2016-11-14T05:35:58.733Z,99.99
2016-11-14T05:36:58.710Z,99.99
2016-11-14T05:37:58.684Z,99.99
2016-11-14T05:38:58.658Z,99.99
2016-11-14T05:39:58.637Z,99.99
2016-11-14T05:40:58.609Z,99.99
2016-11-14T05:41:58.584Z,99.99
2016-11-14T05:42:58.568Z,99.99
2016-11-14T05:43:58.534Z,99.99
2016-11-14T05:44:58.509Z,99.99
2016-11-14T05:45:58.488Z,99.99
2016-11-14T05:46:58.460Z,99.99
2016-11-14T05:47:58.439Z,99.99
2016-11-14T05:48:58.433Z,99.99
2016-11-14T05:49:58.388Z,99.99
2016-11-14T05:50:58.365Z,99.99
2016-11-14T05:51:58.338Z,99.99
2016-11-14T05:52:58.317Z,99.99
2016-11-14T05:53:58.290Z,99.99
2016-11-14T05:54:58.265Z,99.99
2016-11-14T05:55:58.241Z,99.99
2016-11-14T05:56:58.225Z,99.99
2016-11-14T05:57:58.193Z,99.99
2016-11-14T05:58:58.166Z,99.99
2016-11-14T05:59:58.140Z,99.99
2016-11-14T06:00:58.118Z,99.99
2016-11-14T06:01:58.090Z,99.99
2016-11-14T06:02:58.067Z,99.99
2016-11-14T06:03:58.357Z,99.99
2016-11-14T06:04:58.018Z,99.99
2016-11-14T06:05:58.305Z,99.99
2016-11-14T06:06:57.968Z,99.99
2016-11-14T06:07:57.945Z,99.99
2016-11-14T06:08:57.927Z,99.99
2016-11-14T06:09:58.231Z,99.99
2016-11-14T06:10:58.181Z,99.99
2016-11-14T06:11:57.846Z,99.99
2016-11-14T06:12:57.822Z,99.99
2016-11-14T06:13:57.795Z,99.99
2016-11-14T06:14:57.771Z,99.99
2016-11-14T06:15:57.745Z,99.99
2016-11-14T06:16:57.729Z,99.99
2016-11-14T06:17:57.698Z,99.99
2016-11-14T06:18:57.675Z,99.99
2016-11-14T06:19:57.646Z,99.99
2016-11-14T06:20:57.621Z,99.99
2016-11-14T06:21:57.602Z,99.99
2016-11-14T06:22:57.572Z,99.99
2016-11-14T06:23:57.549Z,99.99
2016-11-14T06:24:57.574Z,99.99
2016-11-14T06:25:57.549Z,99.99
2016-11-14T06:26:57.787Z,99.99
2016-11-14T06:27:57.450Z,99.99
2016-11-14T06:28:57.424Z,99.99
2016-11-14T06:29:57.449Z,99.99
2016-11-14T06:30:57.372Z,99.99
2016-11-14T06:31:57.660Z,99.99
2016-11-14T06:32:57.640Z,99.99
2016-11-14T06:33:57.299Z,99.99
2016-11-14T06:34:57.271Z,99.99
2016-11-14T06:35:57.253Z,99.99
2016-11-14T06:36:57.230Z,99.99
2016-11-14T06:37:57.204Z,99.99
2016-11-14T06:38:57.178Z,99.99
2016-11-14T06:39:57.151Z,99.99
2016-11-14T06:40:57.438Z,99.99
2016-11-14T06:41:57.101Z,99.99
2016-11-14T06:42:57.079Z,99.99
2016-11-14T06:43:57.052Z,99.99
2016-11-14T06:44:57.027Z,99.99
2016-11-14T06:45:57.005Z,99.99
2016-11-14T06:46:56.979Z,99.99
2016-11-14T06:47:56.955Z,99.99
2016-11-14T06:48:56.924Z,99.99
2016-11-14T06:49:57.213Z,99.99
2016-11-14T06:50:56.878Z,99.99
2016-11-14T06:51:56.855Z,99.99
2016-11-14T06:52:56.827Z,99.99
2016-11-14T06:53:56.802Z,99.99
2016-11-14T06:54:56.779Z,99.99
2016-11-14T06:55:56.754Z,99.99
2016-11-14T06:56:56.732Z,99.99
2016-11-14T06:57:56.706Z,99.99
2016-11-14T06:58:56.681Z,99.99
2016-11-14T06:59:56.653Z,99.99
2016-11-14T07:00:56.630Z,99.99
2016-11-14T07:01:56.610Z,99.99
2016-11-14T07:02:56.580Z,99.99
2016-11-14T07:03:56.604Z,99.99
2016-11-14T07:04:56.529Z,99.99
2016-11-14T07:05:56.558Z,99.99
2016-11-14T07:06:56.483Z,99.99
2016-11-14T07:07:56.455Z,99.99
2016-11-14T07:08:56.430Z,99.99
2016-11-14T07:09:56.408Z,99.99
2016-11-14T07:10:56.381Z,99.99
2016-11-14T07:11:56.357Z,99.99
2016-11-14T07:12:56.334Z,99.99
2016-11-14T07:13:56.307Z,99.99
2016-11-14T07:14:56.596Z,99.99
2016-11-14T07:15:56.260Z,99.99
2016-11-14T07:16:56.244Z,99.99
2016-11-14T07:17:56.206Z,99.99
2016-11-14T07:18:56.504Z,99.99
2016-11-14T07:19:56.159Z,99.99
2016-11-14T07:20:56.449Z,99.99
2016-11-14T07:21:56.184Z,99.99
2016-11-14T07:22:56.092Z,99.99
2016-11-14T07:23:56.112Z,99.99
2016-11-14T07:24:56.038Z,99.99
2016-11-14T07:25:56.016Z,99.99
2016-11-14T07:26:55.993Z,99.99
2016-11-14T07:27:55.965Z,99.99
2016-11-14T07:28:55.941Z,99.99
2016-11-14T07:29:55.914Z,99.99
2016-11-14T07:30:55.895Z,99.99
2016-11-14T07:31:56.065Z,99.99
2016-11-14T07:32:55.839Z,99.99
2016-11-14T07:33:55.850Z,99.99
2016-11-14T07:34:55.794Z,99.99
2016-11-14T07:35:56.084Z,99.99
2016-11-14T07:36:55.743Z,99.99
2016-11-14T07:37:55.721Z,99.99
2016-11-14T07:38:55.698Z,99.99
2016-11-14T07:39:55.667Z,99.99
2016-11-14T07:40:55.645Z,99.99
2016-11-14T07:41:55.620Z,99.99
2016-11-14T07:42:55.597Z,99.99
2016-11-14T07:43:55.578Z,99.99
2016-11-14T07:44:55.862Z,99.99
2016-11-14T07:45:55.574Z,99.99
2016-11-14T07:46:55.560Z,99.99
2016-11-14T07:47:55.484Z,99.99
2016-11-14T07:48:55.454Z,99.99
2016-11-14T07:49:55.437Z,99.99
2016-11-14T07:51:55.378Z,99.99
2016-11-14T07:52:55.358Z,99.99
2016-11-14T07:53:55.331Z,99.99
2016-11-14T07:54:55.301Z,99.99
2016-11-14T07:55:55.333Z,99.99
2016-11-14T07:56:55.379Z,99.99
2016-11-14T07:57:55.232Z,99.99
2016-11-14T07:58:55.213Z,99.99
2016-11-14T07:59:55.184Z,99.99
2016-11-14T08:00:55.160Z,99.99
2016-11-14T08:01:55.141Z,99.99
2016-11-14T08:02:55.114Z,99.99
2016-11-14T08:03:55.088Z,99.99
2016-11-14T08:04:55.065Z,99.99
2016-11-14T08:05:55.042Z,99.99
2016-11-14T08:06:55.016Z,99.99
2016-11-14T08:07:54.995Z,99.99
2016-11-14T08:08:54.975Z,99.99
2016-11-14T08:09:54.945Z,99.99
2016-11-14T08:10:54.920Z,99.99
2016-11-14T08:11:54.898Z,99.99
2016-11-14T08:12:54.871Z,99.99
2016-11-14T08:13:54.852Z,99.99
2016-11-14T08:14:54.825Z,99.99
2016-11-14T08:15:54.802Z,99.99
2016-11-14T08:16:54.779Z,99.99
2016-11-14T08:17:54.755Z,99.99
2016-11-14T08:18:54.737Z,99.99
2016-11-14T08:19:54.722Z,99.99
2016-11-14T08:20:54.688Z,99.99
2016-11-14T08:21:54.662Z,99.99
2016-11-14T08:22:54.960Z,99.99
2016-11-14T08:23:54.615Z,99.99
2016-11-14T08:24:54.594Z,99.99
2016-11-14T08:25:54.573Z,99.99
2016-11-14T08:26:54.552Z,99.99
2016-11-14T08:27:54.523Z,99.99
2016-11-14T08:28:54.500Z,99.99
2016-11-14T08:29:54.801Z,99.99
2016-11-14T08:30:54.455Z,99.99
2016-11-14T08:31:54.435Z,99.99
2016-11-14T08:32:54.409Z,99.99
2016-11-14T08:33:54.388Z,99.99
2016-11-14T08:34:54.365Z,99.99
2016-11-14T08:35:54.343Z,99.99
2016-11-14T08:36:54.327Z,99.99
2016-11-14T08:37:54.307Z,99.99
2016-11-14T08:38:54.275Z,99.99
2016-11-14T08:39:54.253Z,99.99
2016-11-14T08:40:54.232Z,99.99
2016-11-14T08:41:54.206Z,99.99
2016-11-14T08:42:54.526Z,99.99
2016-11-14T08:43:54.170Z,99.99
2016-11-14T08:44:54.142Z,99.99
2016-11-14T08:45:54.119Z,99.99
2016-11-14T08:46:54.096Z,99.99
2016-11-14T08:47:54.070Z,99.99
2016-11-14T08:48:54.058Z,99.99
2016-11-14T08:49:54.025Z,99.99
2016-11-14T08:50:54.007Z,99.99
2016-11-14T08:51:53.985Z,99.99
2016-11-14T08:52:53.967Z,99.99
2016-11-14T08:53:53.946Z,99.99
2016-11-14T08:54:53.919Z,99.99
2016-11-14T08:55:53.895Z,99.99
2016-11-14T08:56:53.875Z,99.99
2016-11-14T08:57:53.850Z,99.99
2016-11-14T08:58:53.827Z,99.99
2016-11-14T08:59:53.807Z,99.99
2016-11-14T09:00:53.782Z,99.99
2016-11-14T09:01:53.761Z,99.99
2016-11-14T09:02:53.743Z,99.99
2016-11-14T09:03:53.725Z,99.99
2016-11-14T09:04:53.701Z,99.99
2016-11-14T09:05:53.680Z,99.99
2016-11-14T09:06:53.668Z,99.99
2016-11-14T09:07:53.635Z,99.99
2016-11-14T09:08:53.641Z,99.99
2016-11-14T09:09:53.598Z,99.99
2016-11-14T09:10:53.576Z,99.99
2016-11-14T09:11:53.556Z,99.99
2016-11-14T09:12:53.523Z,99.99
2016-11-14T09:13:53.507Z,99.99
2016-11-14T09:14:53.795Z,99.99
2016-11-14T09:15:53.775Z,99.99
2016-11-14T09:16:53.442Z,99.99
2016-11-14T09:17:53.420Z,99.99
2016-11-14T09:18:53.397Z,99.99
2016-11-14T09:19:53.694Z,99.99
2016-11-14T09:20:53.361Z,99.99
2016-11-14T09:21:53.650Z,99.99
2016-11-14T09:22:53.318Z,99.99
2016-11-14T09:23:53.300Z,99.99
2016-11-14T09:24:53.291Z,99.99
2016-11-14T09:25:53.262Z,99.99
2016-11-14T09:26:53.245Z,99.99
2016-11-14T09:27:53.234Z,99.99
2016-11-14T09:28:53.208Z,99.99
2016-11-14T09:29:53.263Z,99.99
2016-11-14T09:30:53.488Z,95.31
2016-11-14T09:31:53.364Z,97.97
2016-11-14T09:32:53.139Z,99.77
2016-11-14T09:33:53.123Z,97.41
2016-11-14T09:34:53.103Z,97.55
2016-11-14T09:35:53.087Z,97.55
2016-11-14T09:36:53.070Z,96.78
2016-11-14T09:37:53.055Z,96.59
2016-11-14T09:38:53.037Z,96.22
2016-11-14T09:39:53.019Z,92.66
2016-11-14T09:40:53.005Z,94.74
2016-11-14T09:41:52.987Z,88.34
2016-11-14T09:42:52.971Z,91.56
2016-11-14T09:43:52.960Z,83.91
2016-11-14T09:44:52.946Z,82.49
2016-11-14T09:45:53.240Z,84.82
2016-11-14T09:46:52.914Z,84.72
2016-11-14T09:47:52.894Z,83.01
2016-11-14T09:48:52.882Z,83.2
2016-11-14T09:49:52.868Z,80.58
2016-11-14T09:50:52.854Z,83.25
2016-11-14T09:51:52.836Z,82.39
2016-11-14T09:52:52.822Z,79.35
2016-11-14T09:53:52.808Z,81.12
2016-11-14T09:54:52.804Z,84.49
2016-11-14T09:55:52.778Z,83.64
2016-11-14T09:56:52.765Z,86.77
2016-11-14T09:57:52.752Z,84.25
2016-11-14T09:58:52.735Z,80.93
2016-11-14T09:59:52.719Z,79.54
2016-11-14T10:00:52.711Z,79.22
2016-11-14T10:01:52.692Z,82.4
2016-11-14T10:02:52.680Z,86.2
2016-11-14T10:03:52.982Z,87.34
2016-11-14T10:04:52.651Z,88.48
2016-11-14T10:05:52.634Z,89.72
2016-11-14T10:06:52.623Z,88.76
2016-11-14T10:07:52.605Z,87.24
2016-11-14T10:08:52.591Z,86.3
2016-11-14T10:09:52.575Z,89.1
2016-11-14T10:10:52.560Z,88.15
2016-11-14T10:11:52.545Z,86.54
2016-11-14T10:12:52.532Z,87.39
2016-11-14T10:13:52.514Z,90.52
2016-11-14T10:14:52.498Z,91.19
2016-11-14T10:15:52.487Z,91.38
2016-11-14T10:16:52.473Z,94.32
2016-11-14T10:17:52.451Z,92.61
2016-11-14T10:18:52.437Z,92.52
2016-11-14T10:19:52.423Z,93.94
2016-11-14T10:20:52.407Z,94.79
2016-11-14T10:21:52.394Z,93.37
2016-11-14T10:22:52.380Z,92.9
2016-11-14T10:23:52.399Z,92.61
2016-11-14T10:24:52.660Z,94.42
2016-11-14T10:25:52.329Z,92.75
2016-11-14T10:26:52.312Z,95.46
2016-11-14T10:27:52.609Z,93.04
2016-11-14T10:28:52.286Z,91.52
2016-11-14T10:29:52.277Z,89.43
2016-11-14T10:30:52.264Z,90.76
2016-11-14T10:31:52.241Z,93.51
2016-11-14T10:32:52.231Z,91.52
2016-11-14T10:33:52.207Z,92.56
2016-11-14T10:34:52.192Z,91.61
2016-11-14T10:35:52.177Z,93.32
2016-11-14T10:36:52.165Z,90.76
2016-11-14T10:37:52.464Z,91.42
2016-11-14T10:38:52.131Z,93.6
2016-11-14T10:39:52.117Z,94.08
2016-11-14T10:40:52.103Z,93.7
2016-11-14T10:41:52.085Z,91.33
2016-11-14T10:42:52.073Z,90.9
2016-11-14T10:43:52.057Z,88.71
2016-11-14T10:44:52.048Z,87.34
2016-11-14T10:45:52.029Z,88.57
2016-11-14T10:46:52.012Z,87.24
2016-11-14T10:47:52.003Z,88.29
2016-11-14T10:49:51.976Z,87.91
2016-11-14T10:50:51.964Z,86.53
2016-11-14T10:51:51.944Z,87.67
2016-11-14T10:52:51.931Z,88.05
2016-11-14T10:53:51.912Z,85.49
2016-11-14T10:54:51.897Z,86.63
2016-11-14T10:55:51.889Z,87.01
2016-11-14T10:56:51.872Z,88.62
2016-11-14T10:57:51.858Z,85.96
2016-11-14T10:58:51.843Z,84.06
2016-11-14T10:59:51.827Z,83.11
2016-11-14T11:00:52.126Z,79.5
2016-11-14T11:01:51.801Z,83.2
2016-11-14T11:02:51.808Z,84.63
2016-11-14T11:03:51.803Z,84.34
2016-11-14T11:04:51.755Z,81.3
2016-11-14T11:05:51.743Z,78.08
2016-11-14T11:06:51.730Z,80.64
2016-11-14T11:07:51.717Z,80.93
2016-11-14T11:08:51.701Z,80.55
2016-11-14T11:09:51.765Z,78.08
2016-11-14T11:10:51.673Z,76.75
2016-11-14T11:11:51.655Z,79.27
2016-11-14T11:12:51.645Z,80.22
2016-11-14T11:13:51.628Z,83.36
2016-11-14T11:14:51.624Z,84.49
2016-11-14T11:15:51.603Z,83.2
2016-11-14T11:16:51.586Z,84.72
2016-11-14T11:17:51.572Z,85.86
2016-11-14T11:18:51.559Z,80.83
2016-11-14T11:19:51.545Z,79.5
2016-11-14T11:20:51.530Z,81.59
2016-11-14T11:21:51.516Z,83.11
2016-11-14T11:22:51.501Z,78.83
2016-11-14T11:23:51.523Z,80.16
2016-11-14T11:24:51.474Z,79.12
2016-11-14T11:25:51.463Z,80.16
2016-11-14T11:26:51.445Z,82.35
2016-11-14T11:27:51.437Z,78.17
2016-11-14T11:28:51.419Z,78.74
2016-11-14T11:29:51.403Z,78.93
2016-11-14T11:30:51.391Z,76.46
2016-11-14T11:31:51.578Z,77.79
2016-11-14T11:32:51.361Z,77.7
2016-11-14T11:33:51.346Z,79.08
2016-11-14T11:34:51.333Z,82.21
2016-11-14T11:35:51.315Z,78.36
2016-11-14T11:36:51.303Z,77.6
2016-11-14T11:37:51.290Z,77.89
2016-11-14T11:38:51.272Z,76.37
2016-11-14T11:39:51.258Z,75.23
2016-11-14T11:40:51.245Z,78.08
2016-11-14T11:41:51.232Z,76.65
2016-11-14T11:42:51.219Z,73.61
2016-11-14T11:43:51.202Z,76.27
2016-11-14T11:44:51.186Z,76.37
2016-11-14T11:45:51.179Z,74.08
2016-11-14T11:46:51.470Z,72.95
2016-11-14T11:47:51.146Z,74.56
2016-11-14T11:48:51.128Z,75.04
2016-11-14T11:49:51.121Z,74.66
2016-11-14T11:50:51.101Z,72.09
2016-11-14T11:51:51.104Z,72
2016-11-14T11:52:51.080Z,71.43
2016-11-14T11:53:51.388Z,70.67
2016-11-14T11:54:51.041Z,70.1
2016-11-14T11:55:51.025Z,72
2016-11-14T11:56:51.324Z,71.14
2016-11-14T11:57:51.007Z,72.09
2016-11-14T11:58:50.978Z,74.85
2016-11-14T11:59:50.973Z,72.85
2016-11-14T12:00:50.951Z,72.53
2016-11-14T12:01:50.934Z,71.58
2016-11-14T12:02:51.236Z,70.38
2016-11-14T12:03:50.904Z,72.47
2016-11-14T12:04:50.886Z,73
2016-11-14T12:05:50.873Z,74.27
2016-11-14T12:06:50.855Z,73.71
2016-11-14T12:07:50.837Z,73.71
2016-11-14T12:08:51.138Z,72.81
2016-11-14T12:09:50.808Z,72.15
2016-11-14T12:10:50.791Z,70.92
2016-11-14T12:11:50.806Z,69.68
2016-11-14T12:12:50.760Z,68.73
2016-11-14T12:13:50.745Z,68.92
2016-11-14T12:14:50.728Z,68.54
2016-11-14T12:15:50.710Z,68.92
2016-11-14T12:16:50.693Z,69.68
2016-11-14T12:17:50.679Z,71.11
2016-11-14T12:18:50.664Z,70.44
2016-11-14T12:19:50.647Z,71.77
2016-11-14T12:20:50.629Z,69.78
2016-11-14T12:21:50.613Z,69.68
2016-11-14T12:22:50.601Z,71.96
2016-11-14T12:23:50.893Z,71.86
2016-11-14T12:24:50.565Z,71.67
2016-11-14T12:25:50.547Z,71.86
2016-11-14T12:26:50.529Z,71.39
2016-11-14T12:27:50.516Z,71.96
2016-11-14T12:28:50.497Z,72.44
2016-11-14T12:29:50.480Z,72.91
2016-11-14T12:30:50.465Z,73.76
2016-11-14T12:31:50.445Z,74.43
2016-11-14T12:32:50.429Z,72.34
2016-11-14T12:33:50.411Z,71.11
2016-11-14T12:34:50.395Z,71.11
2016-11-14T12:35:50.380Z,73.96
2016-11-14T12:36:50.364Z,74.71
2016-11-14T12:37:50.344Z,73.48
2016-11-14T12:38:50.329Z,74.33
2016-11-14T12:39:50.623Z,73.86
2016-11-14T12:40:50.296Z,72.72
2016-11-14T12:41:50.276Z,72.81
2016-11-14T12:42:50.291Z,73.96
2016-11-14T12:43:50.240Z,73.57
2016-11-14T12:44:50.226Z,72.72
2016-11-14T12:45:50.211Z,73.19
2016-11-14T12:46:50.222Z,73.57
2016-11-14T12:47:50.172Z,74.62
2016-11-14T12:48:50.471Z,76.42
2016-11-14T12:49:50.143Z,76.23
2016-11-14T12:50:50.122Z,74.9
2016-11-14T12:51:50.105Z,74.05
2016-11-14T12:52:50.089Z,74.15
2016-11-14T12:53:50.072Z,72.72
2016-11-14T12:54:50.054Z,72.72